sensor_id;sensor_type;location;lat;lon;timestamp;temperature;humidity
35043;DHT22;21230;51.170;17.024;2022-10-16T00:04:13;12.80;99.90
35043;DHT22;21230;51.170;17.024;2022-10-16T00:06:40;12.80;99.90
35043;DHT22;21230;51.170;17.024;2022-10-16T00:09:26;12.80;99.90
35043;DHT22;21230;51.170;17.024;2022-10-16T00:12:05;12.70;99.90
35043;DHT22;21230;51.170;17.024;2022-10-16T00:15:00;12.80;99.90
35043;DHT22;21230;51.170;17.024;2022-10-16T00:17:25;12.70;99.90
35043;DHT22;21230;51.170;17.024;2022-10-16T00:19:51;12.70;99.90
35043;DHT22;21230;51.170;17.024;2022-10-16T00:22:17;12.60;99.90
35043;DHT22;21230;51.170;17.024;2022-10-16T00:24:46;12.60;99.90
35043;DHT22;21230;51.170;17.024;2022-10-16T00:27:17;12.60;99.90
35043;DHT22;21230;51.170;17.024;2022-10-16T00:45:19;12.70;99.90
35043;DHT22;21230;51.170;17.024;2022-10-16T00:47:48;12.70;99.90
35043;DHT22;21230;51.170;17.024;2022-10-16T00:53:17;12.70;99.90
35043;DHT22;21230;51.170;17.024;2022-10-16T00:56:04;12.70;99.90
35043;DHT22;21230;51.170;17.024;2022-10-16T00:58:36;12.70;99.90
35043;DHT22;21230;51.170;17.024;2022-10-16T01:01:02;12.70;99.90
35043;DHT22;21230;51.170;17.024;2022-10-16T01:03:29;12.70;99.90
35043;DHT22;21230;51.170;17.024;2022-10-16T01:05:58;12.80;99.90
35043;DHT22;21230;51.170;17.024;2022-10-16T01:08:43;12.70;99.90
35043;DHT22;21230;51.170;17.024;2022-10-16T01:11:22;12.80;99.90
35043;DHT22;21230;51.170;17.024;2022-10-16T01:17:01;12.80;99.90
35043;DHT22;21230;51.170;17.024;2022-10-16T01:24:50;12.90;99.90
35043;DHT22;21230;51.170;17.024;2022-10-16T01:27:23;12.80;99.90
35043;DHT22;21230;51.170;17.024;2022-10-16T01:30:04;12.80;99.90
35043;DHT22;21230;51.170;17.024;2022-10-16T01:32:44;12.90;99.90
35043;DHT22;21230;51.170;17.024;2022-10-16T01:35:11;12.90;99.90
35043;DHT22;21230;51.170;17.024;2022-10-16T01:37:41;12.90;99.90
35043;DHT22;21230;51.170;17.024;2022-10-16T01:40:10;12.90;99.90
35043;DHT22;21230;51.170;17.024;2022-10-16T01:42:44;12.90;99.90
35043;DHT22;21230;51.170;17.024;2022-10-16T01:45:14;12.90;99.90
35043;DHT22;21230;51.170;17.024;2022-10-16T01:47:41;12.90;99.90
35043;DHT22;21230;51.170;17.024;2022-10-16T01:50:09;12.90;99.90
35043;DHT22;21230;51.170;17.024;2022-10-16T01:52:35;12.90;99.90
35043;DHT22;21230;51.170;17.024;2022-10-16T01:55:03;12.90;99.90
35043;DHT22;21230;51.170;17.024;2022-10-16T01:57:32;12.80;99.90
35043;DHT22;21230;51.170;17.024;2022-10-16T02:00:07;12.90;99.90
35043;DHT22;21230;51.170;17.024;2022-10-16T02:02:47;12.90;99.90
35043;DHT22;21230;51.170;17.024;2022-10-16T02:08:04;12.90;99.90
35043;DHT22;21230;51.170;17.024;2022-10-16T02:10:34;12.90;99.90
35043;DHT22;21230;51.170;17.024;2022-10-16T02:13:06;12.90;99.90
35043;DHT22;21230;51.170;17.024;2022-10-16T02:15:32;12.90;99.90
35043;DHT22;21230;51.170;17.024;2022-10-16T02:17:58;13.00;99.90
35043;DHT22;21230;51.170;17.024;2022-10-16T02:20:25;13.00;99.90
35043;DHT22;21230;51.170;17.024;2022-10-16T02:23:12;13.00;99.90
35043;DHT22;21230;51.170;17.024;2022-10-16T02:25:52;13.00;99.90
35043;DHT22;21230;51.170;17.024;2022-10-16T02:28:20;13.00;99.90
35043;DHT22;21230;51.170;17.024;2022-10-16T02:31:08;13.10;99.90
35043;DHT22;21230;51.170;17.024;2022-10-16T02:33:40;13.00;99.90
35043;DHT22;21230;51.170;17.024;2022-10-16T02:36:06;13.10;99.90
35043;DHT22;21230;51.170;17.024;2022-10-16T02:38:41;13.10;99.90
35043;DHT22;21230;51.170;17.024;2022-10-16T02:41:11;13.10;99.90
35043;DHT22;21230;51.170;17.024;2022-10-16T02:43:37;13.10;99.90
35043;DHT22;21230;51.170;17.024;2022-10-16T02:46:05;13.10;99.90
35043;DHT22;21230;51.170;17.024;2022-10-16T02:48:31;13.10;99.90
35043;DHT22;21230;51.170;17.024;2022-10-16T02:51:11;13.00;99.90
35043;DHT22;21230;51.170;17.024;2022-10-16T02:53:48;13.00;99.90
35043;DHT22;21230;51.170;17.024;2022-10-16T02:56:14;13.00;99.90
35043;DHT22;21230;51.170;17.024;2022-10-16T02:58:41;13.00;99.90
35043;DHT22;21230;51.170;17.024;2022-10-16T03:04:23;13.00;99.90
35043;DHT22;21230;51.170;17.024;2022-10-16T03:06:49;13.00;99.90
35043;DHT22;21230;51.170;17.024;2022-10-16T03:09:14;13.00;99.90
35043;DHT22;21230;51.170;17.024;2022-10-16T03:11:40;13.00;99.90
35043;DHT22;21230;51.170;17.024;2022-10-16T03:14:11;13.00;99.90
35043;DHT22;21230;51.170;17.024;2022-10-16T03:16:41;13.00;99.90
35043;DHT22;21230;51.170;17.024;2022-10-16T03:19:11;13.00;99.90
35043;DHT22;21230;51.170;17.024;2022-10-16T03:21:59;13.00;99.90
35043;DHT22;21230;51.170;17.024;2022-10-16T03:24:47;13.00;99.90
35043;DHT22;21230;51.170;17.024;2022-10-16T03:27:12;12.90;99.90
35043;DHT22;21230;51.170;17.024;2022-10-16T03:29:45;12.90;99.90
35043;DHT22;21230;51.170;17.024;2022-10-16T03:32:16;12.80;99.90
35043;DHT22;21230;51.170;17.024;2022-10-16T03:34:49;12.80;99.90
35043;DHT22;21230;51.170;17.024;2022-10-16T03:37:26;12.80;99.90
35043;DHT22;21230;51.170;17.024;2022-10-16T03:40:01;12.80;99.90
35043;DHT22;21230;51.170;17.024;2022-10-16T03:42:35;12.80;99.90
35043;DHT22;21230;51.170;17.024;2022-10-16T03:45:20;12.90;99.90
35043;DHT22;21230;51.170;17.024;2022-10-16T03:53:25;12.90;99.90
35043;DHT22;21230;51.170;17.024;2022-10-16T03:55:56;12.90;99.90
35043;DHT22;21230;51.170;17.024;2022-10-16T03:58:35;13.00;99.90
35043;DHT22;21230;51.170;17.024;2022-10-16T04:01:06;13.10;99.90
35043;DHT22;21230;51.170;17.024;2022-10-16T04:03:47;13.10;99.90
35043;DHT22;21230;51.170;17.024;2022-10-16T04:06:43;13.00;99.90
35043;DHT22;21230;51.170;17.024;2022-10-16T04:09:09;13.10;99.90
35043;DHT22;21230;51.170;17.024;2022-10-16T04:11:35;13.10;99.90
35043;DHT22;21230;51.170;17.024;2022-10-16T04:14:04;13.10;99.90
35043;DHT22;21230;51.170;17.024;2022-10-16T04:16:30;13.10;99.90
35043;DHT22;21230;51.170;17.024;2022-10-16T04:19:01;13.10;99.90
35043;DHT22;21230;51.170;17.024;2022-10-16T04:21:33;13.10;99.90
35043;DHT22;21230;51.170;17.024;2022-10-16T04:35:38;13.20;99.90
35043;DHT22;21230;51.170;17.024;2022-10-16T04:38:04;13.20;99.90
35043;DHT22;21230;51.170;17.024;2022-10-16T04:40:29;13.10;99.90
35043;DHT22;21230;51.170;17.024;2022-10-16T04:42:58;13.10;99.90
35043;DHT22;21230;51.170;17.024;2022-10-16T04:48:19;13.20;99.90
35043;DHT22;21230;51.170;17.024;2022-10-16T04:53:49;13.30;99.90
35043;DHT22;21230;51.170;17.024;2022-10-16T05:10:35;13.30;99.90
35043;DHT22;21230;51.170;17.024;2022-10-16T05:19:13;13.30;99.90
35043;DHT22;21230;51.170;17.024;2022-10-16T05:44:38;13.30;99.90
35043;DHT22;21230;51.170;17.024;2022-10-16T05:54:00;13.20;99.90
35043;DHT22;21230;51.170;17.024;2022-10-16T05:59:38;13.20;99.90
35043;DHT22;21230;51.170;17.024;2022-10-16T10:59:46;20.50;99.90
35043;DHT22;21230;51.170;17.024;2022-10-16T11:05:50;20.70;99.90
35043;DHT22;21230;51.170;17.024;2022-10-16T11:08:19;21.00;99.90
35043;DHT22;21230;51.170;17.024;2022-10-16T11:14:22;21.20;99.90
35043;DHT22;21230;51.170;17.024;2022-10-16T11:57:09;20.70;99.90
35043;DHT22;21230;51.170;17.024;2022-10-16T12:13:00;20.20;99.90
35043;DHT22;21230;51.170;17.024;2022-10-16T12:56:19;20.20;99.90
35043;DHT22;21230;51.170;17.024;2022-10-16T13:29:10;20.00;99.90
35043;DHT22;21230;51.170;17.024;2022-10-16T13:37:40;20.00;99.90
35043;DHT22;21230;51.170;17.024;2022-10-16T13:40:34;20.10;99.90
35043;DHT22;21230;51.170;17.024;2022-10-16T13:49:34;20.10;99.90
